createdAt,value
2022-11-19T00:00:16.566Z,41.80
2022-11-19T00:05:40.411Z,45.33
2022-11-19T00:10:42.764Z,28.27
2022-11-19T00:15:45.259Z,29.95
2022-11-19T00:20:47.681Z,43.38
2022-11-19T00:25:50.010Z,44.88
2022-11-19T00:30:52.335Z,70.20
2022-11-19T00:35:59.298Z,40.65
2022-11-19T00:41:01.648Z,63.08
2022-11-19T00:46:04.366Z,49.88
2022-11-19T00:51:07.776Z,71.03
2022-11-19T00:56:12.553Z,43.30
2022-11-19T01:01:16.707Z,20.92
2022-11-19T01:06:21.001Z,29.13
2022-11-19T01:11:28.950Z,37.88
2022-11-19T01:16:36.616Z,29.73
2022-11-19T01:21:39.018Z,23.88
2022-11-19T01:26:45.569Z,27.63
2022-11-19T01:31:48.504Z,30.17
2022-11-19T01:36:50.949Z,41.07
2022-11-19T01:41:53.394Z,47.27
2022-11-19T01:46:56.133Z,29.93
2022-11-19T01:52:01.384Z,39.92
2022-11-19T01:57:07.053Z,49.40
2022-11-19T02:02:09.701Z,26.10
2022-11-19T02:07:12.777Z,57.53
2022-11-19T02:12:35.897Z,66.07
2022-11-19T02:18:12.466Z,44.13
2022-11-19T02:23:50.808Z,47.90
2022-11-19T02:28:58.164Z,38.13
2022-11-19T02:34:14.714Z,77.80
2022-11-19T02:39:26.973Z,47.47
2022-11-19T02:44:52.624Z,67.13
2022-11-19T02:49:59.502Z,49.07
2022-11-19T02:55:01.921Z,52.97
2022-11-19T03:00:24.794Z,52.40
2022-11-19T03:05:30.784Z,29.17
2022-11-19T03:10:41.057Z,33.17
2022-11-19T03:16:16.391Z,29.53
2022-11-19T03:21:27.991Z,44.87
2022-11-19T03:26:36.562Z,35.03
2022-11-19T03:31:42.687Z,30.77
2022-11-19T03:36:47.043Z,30.57
2022-11-19T03:41:51.056Z,37.10
2022-11-19T03:46:58.108Z,30.77
2022-11-19T03:52:08.836Z,35.43
2022-11-19T03:57:14.733Z,25.77
2022-11-19T04:02:18.317Z,29.70
2022-11-19T04:07:22.958Z,22.85
2022-11-19T04:12:25.686Z,18.63
2022-11-19T04:17:28.149Z,20.27
2022-11-19T04:22:30.463Z,20.93
2022-11-19T04:27:32.808Z,20.07
2022-11-19T04:32:35.315Z,22.40
2022-11-19T04:37:37.687Z,22.23
2022-11-19T04:42:40.004Z,30.50
2022-11-19T04:47:44.523Z,32.17
2022-11-19T04:52:46.859Z,32.30
2022-11-19T04:57:51.972Z,31.73
2022-11-19T05:02:54.251Z,33.00
2022-11-19T05:07:56.482Z,37.00
2022-11-19T05:12:58.909Z,35.07
2022-11-19T05:18:01.268Z,26.87
2022-11-19T05:23:03.574Z,25.07
2022-11-19T05:28:06.030Z,27.97
2022-11-19T05:33:08.463Z,26.57
2022-11-19T05:38:10.827Z,22.87
2022-11-19T05:43:14.331Z,19.47
2022-11-19T05:53:18.941Z,21.27
2022-11-19T05:58:21.558Z,17.50
2022-11-19T06:03:23.891Z,14.53
2022-11-19T06:08:26.238Z,21.57
2022-11-19T06:14:26.413Z,20.20
2022-11-19T06:19:29.085Z,18.73
2022-11-19T06:24:31.622Z,23.80
2022-11-19T06:29:34.327Z,35.50
2022-11-19T06:34:36.729Z,24.07
2022-11-19T06:39:39.068Z,25.93
2022-11-19T06:44:41.725Z,22.90
2022-11-19T06:49:44.232Z,40.75
2022-11-19T06:54:46.803Z,34.33
2022-11-19T06:59:49.119Z,26.40
2022-11-19T07:04:51.809Z,25.27
2022-11-19T07:09:54.207Z,29.13
2022-11-19T07:15:01.194Z,28.53
2022-11-19T07:20:07.066Z,29.13
2022-11-19T07:25:12.688Z,32.08
2022-11-19T07:30:15.753Z,25.83
2022-11-19T07:35:18.269Z,39.45
2022-11-19T07:40:20.625Z,34.03
2022-11-19T07:45:23.361Z,32.55
2022-11-19T07:50:25.810Z,29.17
2022-11-19T07:55:28.276Z,25.83
2022-11-19T08:00:30.636Z,31.88
2022-11-19T08:05:33.261Z,46.92
2022-11-19T08:10:36.087Z,37.13
2022-11-19T08:15:38.461Z,28.73
2022-11-19T08:20:44.271Z,25.70
2022-11-19T08:25:46.709Z,25.15
2022-11-19T08:30:49.486Z,22.77
2022-11-19T08:35:56.084Z,21.85
2022-11-19T08:41:17.174Z,21.42
2022-11-19T08:46:19.642Z,20.92
2022-11-19T08:51:22.314Z,18.80
2022-11-19T08:56:27.624Z,23.40
2022-11-19T09:01:30.830Z,40.42
2022-11-19T09:06:36.516Z,28.38
2022-11-19T09:11:42.709Z,33.42
2022-11-19T09:16:46.142Z,33.97
2022-11-19T09:21:49.024Z,33.10
2022-11-19T09:26:52.937Z,16.90
2022-11-19T09:31:55.886Z,23.83
2022-11-19T09:36:58.652Z,18.90
2022-11-19T09:48:00.879Z,27.33
2022-11-19T09:53:13.020Z,19.90
2022-11-19T09:58:38.713Z,16.98
2022-11-19T10:03:46.293Z,15.55
2022-11-19T10:09:18.665Z,15.48
2022-11-19T10:15:06.397Z,15.68
2022-11-19T10:20:13.570Z,13.68
2022-11-19T10:25:19.576Z,19.60
2022-11-19T10:30:29.494Z,18.23
2022-11-19T10:35:42.375Z,13.30
2022-11-19T10:40:48.846Z,23.80
2022-11-19T10:45:51.746Z,24.10
2022-11-19T10:50:57.249Z,19.10
2022-11-19T10:56:04.623Z,17.98
2022-11-19T11:01:14.780Z,20.58
2022-11-19T11:06:17.950Z,19.58
2022-11-19T11:11:26.159Z,12.07
2022-11-19T11:16:45.481Z,12.73
2022-11-19T11:21:52.434Z,15.80
2022-11-19T11:27:18.369Z,13.18
2022-11-19T11:32:29.424Z,14.10
2022-11-19T11:37:32.940Z,14.40
2022-11-19T11:42:35.280Z,16.73
2022-11-19T11:47:38.860Z,13.38
2022-11-19T11:52:44.465Z,14.98
2022-11-19T11:58:00.264Z,13.55
2022-11-19T12:03:22.925Z,19.50
2022-11-19T12:08:45.297Z,14.05
2022-11-19T12:14:11.328Z,18.08
2022-11-19T12:19:41.615Z,21.65
2022-11-19T12:25:21.629Z,25.70
2022-11-19T12:30:47.642Z,18.80
2022-11-19T12:36:17.775Z,14.70
2022-11-19T12:41:30.970Z,14.38
2022-11-19T12:46:35.973Z,15.23
2022-11-19T12:51:52.272Z,13.52
2022-11-19T12:57:03.606Z,12.20
2022-11-19T13:02:33.583Z,15.70
2022-11-19T13:08:00.034Z,13.23
2022-11-19T13:13:04.375Z,16.13
2022-11-19T13:18:12.714Z,20.27
2022-11-19T13:23:25.982Z,18.85
2022-11-19T13:28:44.779Z,18.05
2022-11-19T13:33:52.574Z,18.05
2022-11-19T13:38:57.449Z,18.23
2022-11-19T13:44:19.076Z,13.07
2022-11-19T13:49:31.917Z,18.58
2022-11-19T13:54:36.570Z,27.77
2022-11-19T13:59:44.792Z,31.30
2022-11-19T14:05:19.996Z,23.65
2022-11-19T14:10:31.436Z,38.13
2022-11-19T14:15:59.036Z,22.25
2022-11-19T14:21:44.927Z,23.15
2022-11-19T14:27:02.175Z,22.55
2022-11-19T14:32:07.584Z,23.42
2022-11-19T14:37:20.426Z,22.35
2022-11-19T14:42:23.498Z,27.35
2022-11-19T14:47:32.811Z,20.42
2022-11-19T14:52:50.469Z,21.23
2022-11-19T14:58:18.528Z,19.25
2022-11-19T15:03:26.431Z,24.63
2022-11-19T15:08:37.447Z,31.05
2022-11-19T15:13:44.855Z,25.75
2022-11-19T15:19:03.964Z,26.13
2022-11-19T15:24:37.979Z,36.38
2022-11-19T15:29:58.261Z,28.40
2022-11-19T15:35:26.862Z,26.75
2022-11-19T15:40:33.212Z,23.95
2022-11-19T15:46:01.247Z,18.75
2022-11-19T15:51:04.190Z,18.85
2022-11-19T15:56:08.280Z,20.45
2022-11-19T16:01:24.146Z,17.23
2022-11-19T16:06:32.034Z,17.35
2022-11-19T16:12:01.917Z,14.13
2022-11-19T16:17:43.186Z,17.88
2022-11-19T16:23:04.114Z,18.77
2022-11-19T16:28:13.072Z,20.20
2022-11-19T16:33:25.711Z,13.63
2022-11-19T16:38:29.226Z,14.77
2022-11-19T16:48:49.878Z,19.23
2022-11-19T16:53:52.956Z,13.27
2022-11-19T16:59:00.066Z,22.52
2022-11-19T17:04:08.029Z,21.90
2022-11-19T17:09:29.645Z,20.13
2022-11-19T17:14:35.081Z,19.00
2022-11-19T17:19:37.669Z,24.60
2022-11-19T17:24:44.983Z,31.63
2022-11-19T17:29:52.641Z,29.20
2022-11-19T17:34:55.578Z,30.50
2022-11-19T17:39:57.981Z,20.27
2022-11-19T17:45:02.760Z,25.52
2022-11-19T17:50:09.339Z,30.40
2022-11-19T17:55:17.762Z,27.98
2022-11-19T18:00:20.134Z,30.52
2022-11-19T18:05:23.615Z,24.35
2022-11-19T18:10:27.656Z,23.33
2022-11-19T18:15:30.944Z,20.33
2022-11-19T18:20:33.384Z,23.98
2022-11-19T18:25:35.887Z,24.17
2022-11-19T18:30:41.419Z,20.07
2022-11-19T18:35:43.814Z,18.52
2022-11-19T18:40:46.197Z,17.60
2022-11-19T18:45:49.135Z,23.93
2022-11-19T18:50:53.202Z,18.98
2022-11-19T18:55:55.616Z,17.17
2022-11-19T19:00:58.364Z,14.20
2022-11-19T19:06:07.309Z,16.93
2022-11-19T19:11:30.100Z,17.65
2022-11-19T19:16:35.991Z,19.65
2022-11-19T19:21:38.450Z,15.70
2022-11-19T19:26:44.307Z,24.77
2022-11-19T19:31:46.963Z,20.30
2022-11-19T19:36:53.203Z,22.10
2022-11-19T19:41:56.173Z,22.42
2022-11-19T19:46:59.509Z,20.70
2022-11-19T19:52:06.738Z,24.40
2022-11-19T19:57:12.853Z,17.40
2022-11-19T20:02:16.186Z,35.17
2022-11-19T20:07:19.448Z,47.58
2022-11-19T20:12:22.350Z,17.27
2022-11-19T20:17:25.394Z,15.45
2022-11-19T20:22:28.206Z,20.17
2022-11-19T20:27:30.887Z,18.30
2022-11-19T20:32:33.598Z,24.93
2022-11-19T20:37:37.344Z,30.63
2022-11-19T20:42:58.471Z,26.33
2022-11-19T20:48:02.808Z,22.25
2022-11-19T21:03:26.480Z,28.98
2022-11-19T21:08:32.185Z,28.15
2022-11-19T21:13:36.415Z,26.52
2022-11-19T21:18:39.743Z,29.40
2022-11-19T21:23:44.879Z,21.85
2022-11-19T21:28:49.112Z,18.90
2022-11-19T21:33:52.198Z,19.20
2022-11-19T21:38:54.784Z,24.48
2022-11-19T21:43:57.131Z,22.17
2022-11-19T21:49:00.276Z,15.95
2022-11-19T21:54:04.784Z,23.98
2022-11-19T21:59:08.975Z,22.13
2022-11-19T22:04:13.898Z,20.02
2022-11-19T22:09:16.463Z,25.17
2022-11-19T22:14:23.744Z,20.75
2022-11-19T22:19:26.656Z,27.98
2022-11-19T22:24:29.972Z,17.07
2022-11-19T22:29:39.006Z,20.10
2022-11-19T22:35:00.632Z,19.70
2022-11-19T22:46:19.952Z,18.38
2022-11-19T22:56:29.431Z,22.13
2022-11-19T23:01:34.006Z,19.23
2022-11-19T23:06:38.299Z,17.77
2022-11-19T23:11:59.337Z,20.05
2022-11-19T23:17:04.638Z,21.63
2022-11-19T23:22:07.133Z,25.63
2022-11-19T23:27:10.126Z,25.80
2022-11-19T23:32:13.488Z,16.73
2022-11-19T23:37:16.534Z,21.35
2022-11-19T23:42:18.815Z,19.33
2022-11-19T23:47:21.304Z,18.85
2022-11-19T23:58:05.129Z,23.38
